Location:  
MeteoStar


Sort by weather type Sort by elevation Sort by visibility Sort from west to east north Sort from north to south Alphabetically Sort from strongest wind speed Sort from lowest to highest pressure Sort from highest to lowest dew point temperature Sort coolest temperatures to warmest Sort warm temperatures to coolest
 Metric

Current Observations for New Zealand

Auckland Aerodrome Aws06:00ZNot Avail.52 487997.7NW 11 4822
Auckland Airport06:00ZLight Rain52 48997.1NW 11 4822
Campbell Island Aws06:00ZNot Avail.42 3612987.2ENE 10 3649
Cape Campbell Aws06:00ZNot Avail.53 4512986NNW 21 473
Cape Reinga06:00ZNot Avail.56 52121000WNW 18 56626
Castlepoint06:00ZNot Avail.50 4212988.0NNW 24 4319
Christchurch Aerodrome Aws06:00ZNot Avail.49 4012983.5W 2 49121
Christchurch06:00ZPartly Cloudy50 39983.1W 2 50124
Christmas / Cassidy06:00ZPartly Cloudy81 75121010.1ESE 7 869
Dunedin Aerodrome Aws06:00ZNot Avail.44 4212982.5WNW 1 443
Enderby Island Aws06:00ZNot Avail.44 4312983.0E 10 39131
Farewell Spit Aws06:00ZNot Avail.47 457989.4WNW 6 449
Gisborne Aerodrome Aws06:00ZNot Avail.51 4412993.0NW 5 4916
Haast Aws06:00ZNot Avail.45 4312984.9E 6 429
Hicks Bay Aws06:00ZNot Avail.54 457996.4W 24 48150
Hokitika Aerodrome Aws06:00ZNot Avail.44 427988.0SE 5 41147
Invercargill Airport Aws06:00ZNot Avail.50 4230981ENE 5 480
Kaikoura06:00ZNot Avail.51 4112984.5W 5 49344
Le Bon Bay Aws06:00ZNot Avail.46 4112984.2N 4 44777
Mahia Aws06:00ZNot Avail.50 4212992WNW 13 45446
Mokohinau Aws06:00ZNot Avail.56 4812999.7WNW 25 56196
Napier Aerodrome Aws06:00ZNot Avail.53 3912991NW 14 499
Nelson Aerodrome Aws06:00ZNot Avail.50 4612987.7NE 2 5019
New Plymouth Aws06:00ZNot Avail.51 462.5993W 19 4591
Ngawihi06:00ZNot Avail.53 4212986.9N 16 4826
Nugget Point Aws06:00ZNot Avail.44 4430982.5NE 11 38423
Palmerston North Aws06:00ZNot Avail.50 4512991N 5 48147
Paraparaumu Aws06:00ZNot Avail.52 467989.7NNW 12 4822
Port Taharoa06:00ZNot Avail.55 467995.0W 22 5588
Purerua06:00ZNot Avail.53 50121000.2NNW 1 53269
Puysegur Point Aws06:00ZNot Avail.46 4112980.4SSE 1 46150
Queenstown Aerodrome06:00ZNot Avail.45 3730982.4WSW 5 421161
Raoul Island Kermadec Island06:00ZNot Avail.65 58121014.9W 6 65124
Secretary Island Aws06:00ZNot Avail.46 4412981.2NE 10 4162
South West Cape Aws06:00ZNot Avail.47 4012981.2E 8 43331
Tara Hills06:00ZNot Avail.45 3212983.2N 14 391601
Taupo Aws06:00ZNot Avail.45 4112995.5WNW 7 411335
Tauranga Aerodrome Aws06:00ZNot Avail.52 4512996.2WNW 11 4813
Timaru Aerodrome Aws06:00ZNot Avail.47 4212983E 3 4785
Wellington Aerodrome Aws06:00ZNot Avail.52 4512987.9N 17 4739
Wellington Airport06:00ZClear52 4512987.1N 17 4739
Westport Aerodrome06:00ZNot Avail.47 447988.2E 4 4559

Atlantic
Tropical Watch